sensor_id;sensor_type;location;lat;lon;timestamp;P1;durP1;ratioP1;P2;durP2;ratioP2
8044;SDS011;4065;48.754;9.982;2023-03-31T00:00:04;10.77;;;3.70;;
8044;SDS011;4065;48.754;9.982;2023-03-31T00:03:32;5.93;;;3.20;;
8044;SDS011;4065;48.754;9.982;2023-03-31T00:06:58;7.20;;;3.13;;
8044;SDS011;4065;48.754;9.982;2023-03-31T00:10:20;6.93;;;3.55;;
8044;SDS011;4065;48.754;9.982;2023-03-31T00:13:43;8.52;;;3.42;;
8044;SDS011;4065;48.754;9.982;2023-03-31T00:17:05;5.30;;;3.13;;
8044;SDS011;4065;48.754;9.982;2023-03-31T00:20:28;10.48;;;3.17;;
8044;SDS011;4065;48.754;9.982;2023-03-31T00:23:53;9.85;;;3.67;;
8044;SDS011;4065;48.754;9.982;2023-03-31T00:27:16;6.20;;;3.10;;
8044;SDS011;4065;48.754;9.982;2023-03-31T00:30:38;7.20;;;3.42;;
8044;SDS011;4065;48.754;9.982;2023-03-31T00:34:00;10.45;;;3.20;;
8044;SDS011;4065;48.754;9.982;2023-03-31T00:37:26;7.15;;;3.45;;
8044;SDS011;4065;48.754;9.982;2023-03-31T00:40:49;7.85;;;3.30;;
8044;SDS011;4065;48.754;9.982;2023-03-31T00:44:12;8.65;;;3.78;;
8044;SDS011;4065;48.754;9.982;2023-03-31T00:47:38;5.50;;;3.10;;
8044;SDS011;4065;48.754;9.982;2023-03-31T00:51:01;7.20;;;3.10;;
8044;SDS011;4065;48.754;9.982;2023-03-31T00:54:26;9.73;;;3.67;;
8044;SDS011;4065;48.754;9.982;2023-03-31T00:57:49;6.75;;;2.90;;
8044;SDS011;4065;48.754;9.982;2023-03-31T01:01:13;8.48;;;3.45;;
8044;SDS011;4065;48.754;9.982;2023-03-31T01:04:40;8.70;;;3.40;;
8044;SDS011;4065;48.754;9.982;2023-03-31T01:08:04;10.20;;;3.40;;
8044;SDS011;4065;48.754;9.982;2023-03-31T01:11:27;7.53;;;3.40;;
8044;SDS011;4065;48.754;9.982;2023-03-31T01:14:51;12.57;;;3.92;;
8044;SDS011;4065;48.754;9.982;2023-03-31T01:18:13;5.30;;;3.53;;
8044;SDS011;4065;48.754;9.982;2023-03-31T01:26:03;11.77;;;3.35;;
8044;SDS011;4065;48.754;9.982;2023-03-31T01:29:52;6.85;;;3.70;;
8044;SDS011;4065;48.754;9.982;2023-03-31T01:33:43;9.23;;;3.25;;
8044;SDS011;4065;48.754;9.982;2023-03-31T01:37:24;9.65;;;3.28;;
8044;SDS011;4065;48.754;9.982;2023-03-31T01:41:23;5.80;;;3.33;;
8044;SDS011;4065;48.754;9.982;2023-03-31T01:44:51;7.72;;;3.25;;
8044;SDS011;4065;48.754;9.982;2023-03-31T01:48:20;8.27;;;3.50;;
8044;SDS011;4065;48.754;9.982;2023-03-31T01:51:45;9.38;;;3.70;;
8044;SDS011;4065;48.754;9.982;2023-03-31T01:55:11;11.68;;;3.80;;
8044;SDS011;4065;48.754;9.982;2023-03-31T01:58:39;7.47;;;3.83;;
8044;SDS011;4065;48.754;9.982;2023-03-31T02:02:04;9.55;;;3.58;;
8044;SDS011;4065;48.754;9.982;2023-03-31T02:05:29;9.18;;;3.95;;
8044;SDS011;4065;48.754;9.982;2023-03-31T02:08:55;7.75;;;3.05;;
8044;SDS011;4065;48.754;9.982;2023-03-31T02:12:19;8.15;;;3.55;;
8044;SDS011;4065;48.754;9.982;2023-03-31T02:15:45;9.38;;;3.72;;
8044;SDS011;4065;48.754;9.982;2023-03-31T02:19:10;6.90;;;3.58;;
8044;SDS011;4065;48.754;9.982;2023-03-31T02:22:34;8.43;;;3.50;;
8044;SDS011;4065;48.754;9.982;2023-03-31T02:25:58;7.65;;;3.10;;
8044;SDS011;4065;48.754;9.982;2023-03-31T02:29:22;8.40;;;3.67;;
8044;SDS011;4065;48.754;9.982;2023-03-31T02:32:46;9.90;;;3.63;;
8044;SDS011;4065;48.754;9.982;2023-03-31T02:36:08;10.93;;;3.90;;
8044;SDS011;4065;48.754;9.982;2023-03-31T02:39:31;8.30;;;4.22;;
8044;SDS011;4065;48.754;9.982;2023-03-31T02:42:55;5.88;;;3.38;;
8044;SDS011;4065;48.754;9.982;2023-03-31T02:46:17;11.07;;;3.75;;
8044;SDS011;4065;48.754;9.982;2023-03-31T02:49:42;7.85;;;3.53;;
8044;SDS011;4065;48.754;9.982;2023-03-31T02:53:07;7.25;;;3.78;;
8044;SDS011;4065;48.754;9.982;2023-03-31T02:56:41;7.35;;;3.47;;
8044;SDS011;4065;48.754;9.982;2023-03-31T03:00:09;6.90;;;3.92;;
8044;SDS011;4065;48.754;9.982;2023-03-31T03:03:41;8.95;;;3.80;;
8044;SDS011;4065;48.754;9.982;2023-03-31T03:07:12;8.77;;;4.20;;
8044;SDS011;4065;48.754;9.982;2023-03-31T03:10:40;12.13;;;3.65;;
8044;SDS011;4065;48.754;9.982;2023-03-31T03:14:08;10.20;;;4.70;;
8044;SDS011;4065;48.754;9.982;2023-03-31T03:17:38;7.22;;;3.75;;
8044;SDS011;4065;48.754;9.982;2023-03-31T03:21:01;9.25;;;4.30;;
8044;SDS011;4065;48.754;9.982;2023-03-31T03:24:25;10.70;;;4.70;;
8044;SDS011;4065;48.754;9.982;2023-03-31T03:27:49;9.82;;;4.07;;
8044;SDS011;4065;48.754;9.982;2023-03-31T03:31:13;8.07;;;4.13;;
8044;SDS011;4065;48.754;9.982;2023-03-31T03:34:36;6.47;;;3.90;;
8044;SDS011;4065;48.754;9.982;2023-03-31T03:37:58;8.85;;;4.32;;
8044;SDS011;4065;48.754;9.982;2023-03-31T03:41:21;8.75;;;4.50;;
8044;SDS011;4065;48.754;9.982;2023-03-31T03:44:43;10.77;;;4.07;;
8044;SDS011;4065;48.754;9.982;2023-03-31T03:48:05;10.85;;;4.78;;
8044;SDS011;4065;48.754;9.982;2023-03-31T03:51:27;9.13;;;4.35;;
8044;SDS011;4065;48.754;9.982;2023-03-31T03:54:49;10.02;;;4.32;;
8044;SDS011;4065;48.754;9.982;2023-03-31T03:58:12;8.73;;;4.03;;
8044;SDS011;4065;48.754;9.982;2023-03-31T04:01:34;8.35;;;4.10;;
8044;SDS011;4065;48.754;9.982;2023-03-31T04:04:56;6.85;;;4.55;;
8044;SDS011;4065;48.754;9.982;2023-03-31T04:08:18;8.75;;;4.47;;
8044;SDS011;4065;48.754;9.982;2023-03-31T04:11:40;10.52;;;4.95;;
8044;SDS011;4065;48.754;9.982;2023-03-31T04:15:04;5.55;;;4.32;;
8044;SDS011;4065;48.754;9.982;2023-03-31T04:18:27;7.75;;;4.47;;
8044;SDS011;4065;48.754;9.982;2023-03-31T04:21:49;7.13;;;4.70;;
8044;SDS011;4065;48.754;9.982;2023-03-31T04:25:18;11.20;;;4.18;;
8044;SDS011;4065;48.754;9.982;2023-03-31T04:28:42;7.60;;;4.10;;
8044;SDS011;4065;48.754;9.982;2023-03-31T04:32:07;8.90;;;4.60;;
8044;SDS011;4065;48.754;9.982;2023-03-31T04:35:30;6.03;;;4.70;;
8044;SDS011;4065;48.754;9.982;2023-03-31T04:39:02;7.07;;;4.68;;
8044;SDS011;4065;48.754;9.982;2023-03-31T04:42:24;8.57;;;4.45;;
8044;SDS011;4065;48.754;9.982;2023-03-31T04:45:46;10.68;;;4.80;;
8044;SDS011;4065;48.754;9.982;2023-03-31T04:49:13;9.63;;;5.20;;
8044;SDS011;4065;48.754;9.982;2023-03-31T04:52:43;8.32;;;4.68;;
8044;SDS011;4065;48.754;9.982;2023-03-31T04:56:12;6.07;;;4.40;;
8044;SDS011;4065;48.754;9.982;2023-03-31T04:59:34;9.45;;;4.95;;
8044;SDS011;4065;48.754;9.982;2023-03-31T05:02:58;7.50;;;5.75;;
8044;SDS011;4065;48.754;9.982;2023-03-31T05:06:25;10.20;;;6.20;;
8044;SDS011;4065;48.754;9.982;2023-03-31T05:09:47;11.45;;;5.30;;
8044;SDS011;4065;48.754;9.982;2023-03-31T05:13:10;11.63;;;6.03;;
8044;SDS011;4065;48.754;9.982;2023-03-31T05:16:33;11.82;;;5.72;;
8044;SDS011;4065;48.754;9.982;2023-03-31T05:19:56;11.40;;;5.65;;
8044;SDS011;4065;48.754;9.982;2023-03-31T05:23:21;9.40;;;5.63;;
8044;SDS011;4065;48.754;9.982;2023-03-31T05:26:43;10.30;;;6.47;;
8044;SDS011;4065;48.754;9.982;2023-03-31T05:30:12;11.90;;;7.38;;
8044;SDS011;4065;48.754;9.982;2023-03-31T05:33:35;12.07;;;6.70;;
8044;SDS011;4065;48.754;9.982;2023-03-31T05:37:00;17.10;;;8.32;;
8044;SDS011;4065;48.754;9.982;2023-03-31T05:40:25;13.77;;;7.60;;
8044;SDS011;4065;48.754;9.982;2023-03-31T05:43:48;12.82;;;7.97;;
8044;SDS011;4065;48.754;9.982;2023-03-31T05:47:14;15.80;;;8.23;;
8044;SDS011;4065;48.754;9.982;2023-03-31T05:50:37;13.23;;;9.05;;
8044;SDS011;4065;48.754;9.982;2023-03-31T05:54:02;11.18;;;7.95;;
8044;SDS011;4065;48.754;9.982;2023-03-31T05:57:28;13.20;;;8.50;;
8044;SDS011;4065;48.754;9.982;2023-03-31T06:00:58;16.65;;;9.80;;
8044;SDS011;4065;48.754;9.982;2023-03-31T06:04:22;15.90;;;10.15;;
8044;SDS011;4065;48.754;9.982;2023-03-31T06:07:45;17.17;;;10.93;;
8044;SDS011;4065;48.754;9.982;2023-03-31T06:11:12;16.23;;;9.85;;
8044;SDS011;4065;48.754;9.982;2023-03-31T06:14:42;16.35;;;9.38;;
8044;SDS011;4065;48.754;9.982;2023-03-31T06:18:04;13.60;;;10.00;;
8044;SDS011;4065;48.754;9.982;2023-03-31T06:21:30;17.45;;;9.65;;
8044;SDS011;4065;48.754;9.982;2023-03-31T06:24:53;14.18;;;10.15;;
8044;SDS011;4065;48.754;9.982;2023-03-31T06:28:16;13.38;;;9.68;;
8044;SDS011;4065;48.754;9.982;2023-03-31T06:31:43;14.75;;;10.13;;
8044;SDS011;4065;48.754;9.982;2023-03-31T06:35:06;13.77;;;9.95;;
8044;SDS011;4065;48.754;9.982;2023-03-31T06:38:28;12.73;;;10.15;;
8044;SDS011;4065;48.754;9.982;2023-03-31T06:41:53;16.17;;;10.80;;
8044;SDS011;4065;48.754;9.982;2023-03-31T06:45:16;15.20;;;10.48;;
8044;SDS011;4065;48.754;9.982;2023-03-31T06:48:41;15.43;;;12.05;;
8044;SDS011;4065;48.754;9.982;2023-03-31T06:52:03;19.75;;;13.48;;
8044;SDS011;4065;48.754;9.982;2023-03-31T06:55:29;15.63;;;12.13;;
8044;SDS011;4065;48.754;9.982;2023-03-31T06:58:54;15.65;;;10.75;;
8044;SDS011;4065;48.754;9.982;2023-03-31T07:02:16;16.48;;;11.00;;
8044;SDS011;4065;48.754;9.982;2023-03-31T07:05:41;22.35;;;12.38;;
8044;SDS011;4065;48.754;9.982;2023-03-31T07:09:03;15.88;;;11.70;;
8044;SDS011;4065;48.754;9.982;2023-03-31T07:12:31;16.98;;;10.55;;
8044;SDS011;4065;48.754;9.982;2023-03-31T07:15:54;17.35;;;10.85;;
8044;SDS011;4065;48.754;9.982;2023-03-31T07:19:17;17.02;;;11.30;;
8044;SDS011;4065;48.754;9.982;2023-03-31T07:22:54;20.10;;;13.20;;
8044;SDS011;4065;48.754;9.982;2023-03-31T07:27:01;16.95;;;11.40;;
8044;SDS011;4065;48.754;9.982;2023-03-31T07:30:45;21.92;;;14.25;;
8044;SDS011;4065;48.754;9.982;2023-03-31T07:34:09;19.30;;;14.15;;
8044;SDS011;4065;48.754;9.982;2023-03-31T07:37:36;20.45;;;13.52;;
8044;SDS011;4065;48.754;9.982;2023-03-31T07:41:00;17.15;;;10.52;;
8044;SDS011;4065;48.754;9.982;2023-03-31T07:44:22;12.57;;;7.40;;
8044;SDS011;4065;48.754;9.982;2023-03-31T07:47:45;6.43;;;4.75;;
8044;SDS011;4065;48.754;9.982;2023-03-31T07:51:08;5.57;;;4.97;;
8044;SDS011;4065;48.754;9.982;2023-03-31T07:54:31;6.28;;;5.28;;
8044;SDS011;4065;48.754;9.982;2023-03-31T07:57:54;8.15;;;5.32;;
8044;SDS011;4065;48.754;9.982;2023-03-31T08:01:17;6.70;;;5.00;;
8044;SDS011;4065;48.754;9.982;2023-03-31T08:04:40;5.88;;;4.78;;
8044;SDS011;4065;48.754;9.982;2023-03-31T08:08:03;6.15;;;4.50;;
8044;SDS011;4065;48.754;9.982;2023-03-31T08:11:27;6.07;;;4.22;;
8044;SDS011;4065;48.754;9.982;2023-03-31T08:14:54;5.18;;;3.92;;
8044;SDS011;4065;48.754;9.982;2023-03-31T08:18:16;4.72;;;3.90;;
8044;SDS011;4065;48.754;9.982;2023-03-31T08:21:39;4.35;;;3.95;;
8044;SDS011;4065;48.754;9.982;2023-03-31T08:25:02;4.57;;;3.95;;
8044;SDS011;4065;48.754;9.982;2023-03-31T08:28:25;3.90;;;3.50;;
8044;SDS011;4065;48.754;9.982;2023-03-31T08:31:49;4.38;;;3.63;;
8044;SDS011;4065;48.754;9.982;2023-03-31T08:35:11;5.45;;;3.58;;
8044;SDS011;4065;48.754;9.982;2023-03-31T08:38:35;5.75;;;3.65;;
8044;SDS011;4065;48.754;9.982;2023-03-31T08:42:01;4.30;;;3.17;;
8044;SDS011;4065;48.754;9.982;2023-03-31T08:45:26;5.18;;;3.10;;
8044;SDS011;4065;48.754;9.982;2023-03-31T08:48:55;3.70;;;2.95;;
8044;SDS011;4065;48.754;9.982;2023-03-31T08:52:21;4.72;;;2.90;;
8044;SDS011;4065;48.754;9.982;2023-03-31T08:55:46;3.90;;;2.95;;
8044;SDS011;4065;48.754;9.982;2023-03-31T08:59:15;4.72;;;3.08;;
8044;SDS011;4065;48.754;9.982;2023-03-31T09:02:49;5.03;;;2.90;;
8044;SDS011;4065;48.754;9.982;2023-03-31T09:06:20;3.58;;;2.88;;
8044;SDS011;4065;48.754;9.982;2023-03-31T09:09:50;7.07;;;3.00;;
8044;SDS011;4065;48.754;9.982;2023-03-31T09:13:30;5.95;;;3.17;;
8044;SDS011;4065;48.754;9.982;2023-03-31T09:17:05;6.68;;;3.25;;
8044;SDS011;4065;48.754;9.982;2023-03-31T09:20:35;5.53;;;2.42;;
8044;SDS011;4065;48.754;9.982;2023-03-31T09:24:02;6.60;;;2.88;;
8044;SDS011;4065;48.754;9.982;2023-03-31T09:27:29;5.05;;;3.30;;
8044;SDS011;4065;48.754;9.982;2023-03-31T09:30:54;5.28;;;2.70;;
8044;SDS011;4065;48.754;9.982;2023-03-31T09:34:25;4.90;;;3.05;;
8044;SDS011;4065;48.754;9.982;2023-03-31T09:37:51;6.30;;;3.20;;
8044;SDS011;4065;48.754;9.982;2023-03-31T09:41:18;4.20;;;2.60;;
8044;SDS011;4065;48.754;9.982;2023-03-31T09:44:42;5.72;;;2.95;;
8044;SDS011;4065;48.754;9.982;2023-03-31T09:48:10;4.90;;;3.20;;
8044;SDS011;4065;48.754;9.982;2023-03-31T09:51:35;3.42;;;2.50;;
8044;SDS011;4065;48.754;9.982;2023-03-31T09:55:01;4.93;;;2.70;;
8044;SDS011;4065;48.754;9.982;2023-03-31T09:58:33;3.78;;;2.70;;
8044;SDS011;4065;48.754;9.982;2023-03-31T10:02:04;3.63;;;2.20;;
8044;SDS011;4065;48.754;9.982;2023-03-31T10:05:55;3.65;;;2.22;;
8044;SDS011;4065;48.754;9.982;2023-03-31T10:09:38;3.53;;;2.33;;
8044;SDS011;4065;48.754;9.982;2023-03-31T10:13:01;4.47;;;2.67;;
8044;SDS011;4065;48.754;9.982;2023-03-31T10:16:32;4.63;;;2.08;;
8044;SDS011;4065;48.754;9.982;2023-03-31T10:19:57;4.57;;;1.98;;
8044;SDS011;4065;48.754;9.982;2023-03-31T10:23:27;5.40;;;2.22;;
8044;SDS011;4065;48.754;9.982;2023-03-31T10:26:53;3.70;;;2.22;;
8044;SDS011;4065;48.754;9.982;2023-03-31T10:30:20;4.38;;;2.40;;
8044;SDS011;4065;48.754;9.982;2023-03-31T10:33:47;6.82;;;2.78;;
8044;SDS011;4065;48.754;9.982;2023-03-31T10:37:10;8.60;;;2.97;;
8044;SDS011;4065;48.754;9.982;2023-03-31T10:40:36;5.40;;;2.47;;
8044;SDS011;4065;48.754;9.982;2023-03-31T10:43:59;3.00;;;2.05;;
8044;SDS011;4065;48.754;9.982;2023-03-31T10:47:23;4.65;;;2.75;;
8044;SDS011;4065;48.754;9.982;2023-03-31T10:50:48;5.18;;;2.40;;
8044;SDS011;4065;48.754;9.982;2023-03-31T10:54:11;7.90;;;2.88;;
8044;SDS011;4065;48.754;9.982;2023-03-31T10:57:37;5.82;;;2.58;;
8044;SDS011;4065;48.754;9.982;2023-03-31T11:01:09;4.35;;;2.90;;
8044;SDS011;4065;48.754;9.982;2023-03-31T11:08:27;9.70;;;2.80;;
8044;SDS011;4065;48.754;9.982;2023-03-31T11:12:05;6.43;;;2.90;;
8044;SDS011;4065;48.754;9.982;2023-03-31T11:15:34;5.75;;;2.53;;
8044;SDS011;4065;48.754;9.982;2023-03-31T11:19:26;10.25;;;3.92;;
8044;SDS011;4065;48.754;9.982;2023-03-31T11:23:04;7.13;;;2.85;;
8044;SDS011;4065;48.754;9.982;2023-03-31T11:26:39;7.32;;;3.33;;
8044;SDS011;4065;48.754;9.982;2023-03-31T11:30:06;6.95;;;3.15;;
8044;SDS011;4065;48.754;9.982;2023-03-31T11:37:21;6.20;;;2.72;;
8044;SDS011;4065;48.754;9.982;2023-03-31T11:40:58;7.85;;;2.63;;
8044;SDS011;4065;48.754;9.982;2023-03-31T11:44:34;6.97;;;2.70;;
8044;SDS011;4065;48.754;9.982;2023-03-31T11:48:04;5.97;;;2.38;;
8044;SDS011;4065;48.754;9.982;2023-03-31T11:51:37;5.57;;;2.25;;
8044;SDS011;4065;48.754;9.982;2023-03-31T11:55:03;5.78;;;2.38;;
8044;SDS011;4065;48.754;9.982;2023-03-31T11:58:30;14.27;;;6.22;;
8044;SDS011;4065;48.754;9.982;2023-03-31T12:02:08;7.28;;;2.60;;
8044;SDS011;4065;48.754;9.982;2023-03-31T12:05:36;6.55;;;2.47;;
8044;SDS011;4065;48.754;9.982;2023-03-31T12:09:06;3.88;;;2.67;;
8044;SDS011;4065;48.754;9.982;2023-03-31T12:12:32;3.80;;;2.97;;
8044;SDS011;4065;48.754;9.982;2023-03-31T12:15:59;4.90;;;2.65;;
8044;SDS011;4065;48.754;9.982;2023-03-31T12:19:27;3.17;;;2.60;;
8044;SDS011;4065;48.754;9.982;2023-03-31T12:22:53;2.75;;;2.50;;
8044;SDS011;4065;48.754;9.982;2023-03-31T12:26:22;2.38;;;2.17;;
8044;SDS011;4065;48.754;9.982;2023-03-31T12:29:52;3.10;;;2.60;;
8044;SDS011;4065;48.754;9.982;2023-03-31T12:33:19;3.38;;;2.28;;
8044;SDS011;4065;48.754;9.982;2023-03-31T12:36:50;2.47;;;2.10;;
8044;SDS011;4065;48.754;9.982;2023-03-31T12:40:24;2.33;;;2.13;;
8044;SDS011;4065;48.754;9.982;2023-03-31T12:51:39;1.88;;;1.77;;
8044;SDS011;4065;48.754;9.982;2023-03-31T12:55:22;2.55;;;2.15;;
8044;SDS011;4065;48.754;9.982;2023-03-31T12:58:56;4.88;;;2.00;;
8044;SDS011;4065;48.754;9.982;2023-03-31T13:02:44;5.38;;;4.88;;
8044;SDS011;4065;48.754;9.982;2023-03-31T13:06:08;4.57;;;2.53;;
8044;SDS011;4065;48.754;9.982;2023-03-31T13:09:40;2.35;;;1.90;;
8044;SDS011;4065;48.754;9.982;2023-03-31T13:13:12;1.95;;;1.85;;
8044;SDS011;4065;48.754;9.982;2023-03-31T13:17:09;2.78;;;1.90;;
8044;SDS011;4065;48.754;9.982;2023-03-31T13:20:34;1.70;;;1.60;;
8044;SDS011;4065;48.754;9.982;2023-03-31T13:24:00;2.28;;;1.75;;
8044;SDS011;4065;48.754;9.982;2023-03-31T13:27:29;2.58;;;1.75;;
8044;SDS011;4065;48.754;9.982;2023-03-31T13:30:55;4.25;;;1.73;;
8044;SDS011;4065;48.754;9.982;2023-03-31T13:34:24;3.65;;;1.70;;
8044;SDS011;4065;48.754;9.982;2023-03-31T13:37:56;2.70;;;1.67;;
8044;SDS011;4065;48.754;9.982;2023-03-31T13:41:31;3.42;;;2.00;;
8044;SDS011;4065;48.754;9.982;2023-03-31T13:45:41;5.47;;;2.05;;
8044;SDS011;4065;48.754;9.982;2023-03-31T13:49:50;3.53;;;2.40;;
8044;SDS011;4065;48.754;9.982;2023-03-31T13:53:22;5.00;;;2.00;;
8044;SDS011;4065;48.754;9.982;2023-03-31T13:57:24;3.35;;;2.00;;
8044;SDS011;4065;48.754;9.982;2023-03-31T14:08:49;8.82;;;3.25;;
8044;SDS011;4065;48.754;9.982;2023-03-31T14:12:18;8.13;;;2.65;;
8044;SDS011;4065;48.754;9.982;2023-03-31T14:15:42;7.20;;;2.30;;
8044;SDS011;4065;48.754;9.982;2023-03-31T14:19:15;4.47;;;2.60;;
8044;SDS011;4065;48.754;9.982;2023-03-31T14:23:06;7.38;;;3.03;;
8044;SDS011;4065;48.754;9.982;2023-03-31T14:26:41;5.45;;;3.55;;
8044;SDS011;4065;48.754;9.982;2023-03-31T14:30:11;4.85;;;3.28;;
8044;SDS011;4065;48.754;9.982;2023-03-31T14:33:38;3.90;;;2.20;;
8044;SDS011;4065;48.754;9.982;2023-03-31T14:37:04;2.75;;;2.25;;
8044;SDS011;4065;48.754;9.982;2023-03-31T14:40:30;4.65;;;2.50;;
8044;SDS011;4065;48.754;9.982;2023-03-31T14:43:53;2.67;;;2.47;;
8044;SDS011;4065;48.754;9.982;2023-03-31T14:47:24;4.43;;;3.05;;
8044;SDS011;4065;48.754;9.982;2023-03-31T14:50:55;2.60;;;2.40;;
8044;SDS011;4065;48.754;9.982;2023-03-31T14:54:26;2.65;;;2.50;;
8044;SDS011;4065;48.754;9.982;2023-03-31T14:58:02;2.90;;;2.60;;
8044;SDS011;4065;48.754;9.982;2023-03-31T15:01:27;2.70;;;2.35;;
8044;SDS011;4065;48.754;9.982;2023-03-31T15:04:54;3.60;;;2.97;;
8044;SDS011;4065;48.754;9.982;2023-03-31T15:08:20;2.50;;;2.30;;
8044;SDS011;4065;48.754;9.982;2023-03-31T15:11:53;2.35;;;2.08;;
8044;SDS011;4065;48.754;9.982;2023-03-31T15:15:22;4.20;;;1.90;;
8044;SDS011;4065;48.754;9.982;2023-03-31T15:18:52;3.22;;;2.00;;
8044;SDS011;4065;48.754;9.982;2023-03-31T15:22:15;1.92;;;1.83;;
8044;SDS011;4065;48.754;9.982;2023-03-31T15:25:48;4.07;;;2.78;;
8044;SDS011;4065;48.754;9.982;2023-03-31T15:29:12;2.95;;;2.75;;
8044;SDS011;4065;48.754;9.982;2023-03-31T15:32:42;3.35;;;2.03;;
8044;SDS011;4065;48.754;9.982;2023-03-31T15:36:05;2.75;;;2.15;;
8044;SDS011;4065;48.754;9.982;2023-03-31T15:39:28;2.70;;;2.00;;
8044;SDS011;4065;48.754;9.982;2023-03-31T15:42:54;1.98;;;1.70;;
8044;SDS011;4065;48.754;9.982;2023-03-31T15:46:19;2.13;;;1.90;;
8044;SDS011;4065;48.754;9.982;2023-03-31T15:49:50;5.28;;;2.00;;
8044;SDS011;4065;48.754;9.982;2023-03-31T15:53:28;1.95;;;1.85;;
8044;SDS011;4065;48.754;9.982;2023-03-31T15:56:55;4.22;;;1.75;;
8044;SDS011;4065;48.754;9.982;2023-03-31T16:04:12;3.85;;;1.98;;
8044;SDS011;4065;48.754;9.982;2023-03-31T16:07:37;1.98;;;1.50;;
8044;SDS011;4065;48.754;9.982;2023-03-31T16:11:05;1.80;;;1.70;;
8044;SDS011;4065;48.754;9.982;2023-03-31T16:14:34;4.97;;;1.90;;
8044;SDS011;4065;48.754;9.982;2023-03-31T16:17:59;2.30;;;2.10;;
8044;SDS011;4065;48.754;9.982;2023-03-31T16:21:27;2.20;;;2.00;;
8044;SDS011;4065;48.754;9.982;2023-03-31T16:24:55;3.40;;;1.77;;
8044;SDS011;4065;48.754;9.982;2023-03-31T16:28:18;2.53;;;2.10;;
8044;SDS011;4065;48.754;9.982;2023-03-31T16:31:41;3.05;;;2.10;;
8044;SDS011;4065;48.754;9.982;2023-03-31T16:35:04;2.90;;;1.90;;
8044;SDS011;4065;48.754;9.982;2023-03-31T16:38:28;2.70;;;2.30;;
8044;SDS011;4065;48.754;9.982;2023-03-31T16:41:52;2.78;;;2.58;;
8044;SDS011;4065;48.754;9.982;2023-03-31T16:45:15;7.43;;;2.53;;
8044;SDS011;4065;48.754;9.982;2023-03-31T16:48:40;4.10;;;2.25;;
8044;SDS011;4065;48.754;9.982;2023-03-31T16:52:03;3.88;;;2.40;;
8044;SDS011;4065;48.754;9.982;2023-03-31T16:55:26;3.25;;;2.20;;
8044;SDS011;4065;48.754;9.982;2023-03-31T16:58:52;2.75;;;2.05;;
8044;SDS011;4065;48.754;9.982;2023-03-31T17:02:17;5.60;;;2.80;;
8044;SDS011;4065;48.754;9.982;2023-03-31T17:05:41;4.50;;;2.17;;
8044;SDS011;4065;48.754;9.982;2023-03-31T17:09:07;4.60;;;2.33;;
8044;SDS011;4065;48.754;9.982;2023-03-31T17:12:43;3.78;;;2.85;;
8044;SDS011;4065;48.754;9.982;2023-03-31T17:16:08;4.43;;;2.60;;
8044;SDS011;4065;48.754;9.982;2023-03-31T17:19:31;4.03;;;2.88;;
8044;SDS011;4065;48.754;9.982;2023-03-31T17:22:55;3.38;;;2.30;;
8044;SDS011;4065;48.754;9.982;2023-03-31T17:26:18;3.33;;;2.55;;
8044;SDS011;4065;48.754;9.982;2023-03-31T17:29:41;2.90;;;2.60;;
8044;SDS011;4065;48.754;9.982;2023-03-31T17:33:07;4.35;;;2.60;;
8044;SDS011;4065;48.754;9.982;2023-03-31T17:36:29;13.40;;;9.52;;
8044;SDS011;4065;48.754;9.982;2023-03-31T17:39:53;3.67;;;3.38;;
8044;SDS011;4065;48.754;9.982;2023-03-31T17:43:17;5.22;;;3.03;;
8044;SDS011;4065;48.754;9.982;2023-03-31T17:46:41;2.50;;;2.30;;
8044;SDS011;4065;48.754;9.982;2023-03-31T17:50:05;4.93;;;3.08;;
8044;SDS011;4065;48.754;9.982;2023-03-31T17:53:29;2.50;;;2.30;;
8044;SDS011;4065;48.754;9.982;2023-03-31T17:56:52;3.95;;;2.38;;
8044;SDS011;4065;48.754;9.982;2023-03-31T18:00:15;3.17;;;2.22;;
8044;SDS011;4065;48.754;9.982;2023-03-31T18:03:39;3.67;;;2.38;;
8044;SDS011;4065;48.754;9.982;2023-03-31T18:07:03;7.90;;;3.28;;
8044;SDS011;4065;48.754;9.982;2023-03-31T18:10:27;7.93;;;4.28;;
8044;SDS011;4065;48.754;9.982;2023-03-31T18:13:49;4.93;;;2.47;;
8044;SDS011;4065;48.754;9.982;2023-03-31T18:17:12;4.25;;;2.70;;
8044;SDS011;4065;48.754;9.982;2023-03-31T18:20:37;6.25;;;2.75;;
8044;SDS011;4065;48.754;9.982;2023-03-31T18:24:00;4.43;;;2.47;;
8044;SDS011;4065;48.754;9.982;2023-03-31T18:27:33;2.92;;;2.30;;
8044;SDS011;4065;48.754;9.982;2023-03-31T18:30:55;2.97;;;2.40;;
8044;SDS011;4065;48.754;9.982;2023-03-31T18:34:19;2.83;;;2.60;;
8044;SDS011;4065;48.754;9.982;2023-03-31T18:37:42;3.03;;;2.65;;
8044;SDS011;4065;48.754;9.982;2023-03-31T18:41:06;5.63;;;3.50;;
8044;SDS011;4065;48.754;9.982;2023-03-31T18:44:28;4.75;;;2.92;;
8044;SDS011;4065;48.754;9.982;2023-03-31T18:47:50;4.15;;;3.28;;
8044;SDS011;4065;48.754;9.982;2023-03-31T18:51:12;3.35;;;2.92;;
8044;SDS011;4065;48.754;9.982;2023-03-31T18:54:35;5.15;;;3.20;;
8044;SDS011;4065;48.754;9.982;2023-03-31T18:57:58;6.15;;;2.80;;
8044;SDS011;4065;48.754;9.982;2023-03-31T19:01:21;5.72;;;3.03;;
8044;SDS011;4065;48.754;9.982;2023-03-31T19:04:45;3.88;;;2.60;;
8044;SDS011;4065;48.754;9.982;2023-03-31T19:08:07;4.57;;;3.30;;
8044;SDS011;4065;48.754;9.982;2023-03-31T19:11:29;3.50;;;3.17;;
8044;SDS011;4065;48.754;9.982;2023-03-31T19:14:53;3.35;;;2.60;;
8044;SDS011;4065;48.754;9.982;2023-03-31T19:18:18;4.05;;;3.13;;
8044;SDS011;4065;48.754;9.982;2023-03-31T19:21:40;15.77;;;10.38;;
8044;SDS011;4065;48.754;9.982;2023-03-31T19:25:04;11.43;;;8.13;;
8044;SDS011;4065;48.754;9.982;2023-03-31T19:28:27;11.50;;;6.57;;
8044;SDS011;4065;48.754;9.982;2023-03-31T19:31:51;31.02;;;16.75;;
8044;SDS011;4065;48.754;9.982;2023-03-31T19:35:13;17.52;;;10.80;;
8044;SDS011;4065;48.754;9.982;2023-03-31T19:38:36;6.88;;;5.03;;
8044;SDS011;4065;48.754;9.982;2023-03-31T19:41:58;8.18;;;5.03;;
8044;SDS011;4065;48.754;9.982;2023-03-31T19:45:21;4.35;;;3.88;;
8044;SDS011;4065;48.754;9.982;2023-03-31T19:48:45;4.25;;;3.35;;
8044;SDS011;4065;48.754;9.982;2023-03-31T19:52:07;6.13;;;2.97;;
8044;SDS011;4065;48.754;9.982;2023-03-31T19:55:29;4.28;;;3.45;;
8044;SDS011;4065;48.754;9.982;2023-03-31T19:58:53;6.60;;;3.33;;
8044;SDS011;4065;48.754;9.982;2023-03-31T20:02:16;4.88;;;2.90;;
8044;SDS011;4065;48.754;9.982;2023-03-31T20:05:39;7.18;;;5.93;;
8044;SDS011;4065;48.754;9.982;2023-03-31T20:09:02;6.28;;;3.60;;
8044;SDS011;4065;48.754;9.982;2023-03-31T20:12:25;4.75;;;3.08;;
8044;SDS011;4065;48.754;9.982;2023-03-31T20:15:47;5.18;;;2.95;;
8044;SDS011;4065;48.754;9.982;2023-03-31T20:19:18;4.93;;;2.70;;
8044;SDS011;4065;48.754;9.982;2023-03-31T20:22:44;6.70;;;3.20;;
8044;SDS011;4065;48.754;9.982;2023-03-31T20:26:07;10.18;;;5.35;;
8044;SDS011;4065;48.754;9.982;2023-03-31T20:29:30;9.23;;;4.90;;
8044;SDS011;4065;48.754;9.982;2023-03-31T20:32:52;7.05;;;3.28;;
8044;SDS011;4065;48.754;9.982;2023-03-31T20:36:15;6.60;;;3.40;;
8044;SDS011;4065;48.754;9.982;2023-03-31T20:39:40;6.45;;;2.95;;
8044;SDS011;4065;48.754;9.982;2023-03-31T20:43:03;7.50;;;3.17;;
8044;SDS011;4065;48.754;9.982;2023-03-31T20:46:26;6.05;;;2.70;;
8044;SDS011;4065;48.754;9.982;2023-03-31T20:49:48;4.45;;;2.35;;
8044;SDS011;4065;48.754;9.982;2023-03-31T20:53:10;6.03;;;2.97;;
8044;SDS011;4065;48.754;9.982;2023-03-31T20:56:35;6.13;;;2.67;;
8044;SDS011;4065;48.754;9.982;2023-03-31T20:59:59;7.43;;;2.95;;
8044;SDS011;4065;48.754;9.982;2023-03-31T21:03:23;10.30;;;3.00;;
8044;SDS011;4065;48.754;9.982;2023-03-31T21:06:46;8.73;;;3.20;;
8044;SDS011;4065;48.754;9.982;2023-03-31T21:10:08;7.63;;;3.17;;
8044;SDS011;4065;48.754;9.982;2023-03-31T21:13:32;8.07;;;3.25;;
8044;SDS011;4065;48.754;9.982;2023-03-31T21:16:54;8.23;;;3.00;;
8044;SDS011;4065;48.754;9.982;2023-03-31T21:20:16;4.85;;;2.58;;
8044;SDS011;4065;48.754;9.982;2023-03-31T21:23:39;6.43;;;2.70;;
8044;SDS011;4065;48.754;9.982;2023-03-31T21:27:01;8.13;;;3.58;;
8044;SDS011;4065;48.754;9.982;2023-03-31T21:30:24;5.68;;;3.00;;
8044;SDS011;4065;48.754;9.982;2023-03-31T21:33:49;6.57;;;2.78;;
8044;SDS011;4065;48.754;9.982;2023-03-31T21:37:11;5.18;;;2.75;;
8044;SDS011;4065;48.754;9.982;2023-03-31T21:40:34;3.28;;;2.20;;
8044;SDS011;4065;48.754;9.982;2023-03-31T21:43:57;5.72;;;2.40;;
8044;SDS011;4065;48.754;9.982;2023-03-31T21:47:20;4.63;;;2.50;;
8044;SDS011;4065;48.754;9.982;2023-03-31T21:50:43;5.55;;;2.50;;